createdAt,value
2024-03-24T00:00:10.542Z,6.39
2024-03-24T00:05:38.263Z,6.43
2024-03-24T00:10:41.201Z,6.40
2024-03-24T00:15:44.338Z,6.41
2024-03-24T00:20:47.261Z,6.37
2024-03-24T00:25:50.345Z,6.36
2024-03-24T00:30:53.399Z,6.32
2024-03-24T00:35:58.207Z,6.30
2024-03-24T00:41:01.270Z,6.27
2024-03-24T00:46:05.005Z,6.27
2024-03-24T00:51:08.103Z,6.28
2024-03-24T00:56:10.957Z,6.25
2024-03-24T01:01:14.032Z,6.23
2024-03-24T01:06:16.957Z,6.23
2024-03-24T01:11:20.026Z,6.20
2024-03-24T01:16:23.162Z,6.16
2024-03-24T01:21:26.136Z,6.11
2024-03-24T01:26:29.087Z,6.10
2024-03-24T01:31:32.131Z,6.04
2024-03-24T01:36:35.189Z,6.00
2024-03-24T01:41:38.084Z,5.99
2024-03-24T01:46:41.249Z,5.95
2024-03-24T01:51:44.242Z,5.89
2024-03-24T01:56:47.210Z,5.85
2024-03-24T02:01:51.131Z,5.82
2024-03-24T02:06:54.202Z,5.77
2024-03-24T02:11:57.414Z,5.76
2024-03-24T02:17:01.682Z,5.79
2024-03-24T02:22:04.814Z,5.74
2024-03-24T02:27:07.765Z,5.65
2024-03-24T02:32:10.755Z,5.61
2024-03-24T02:37:13.732Z,5.66
2024-03-24T02:42:16.758Z,5.67
2024-03-24T02:47:19.732Z,5.61
2024-03-24T02:52:22.750Z,5.52
2024-03-24T02:57:27.021Z,5.47
2024-03-24T03:02:29.970Z,5.41
2024-03-24T03:07:33.177Z,5.32
2024-03-24T03:12:37.250Z,5.28
2024-03-24T03:17:40.451Z,5.29
2024-03-24T03:22:43.641Z,5.26
2024-03-24T03:27:46.522Z,5.24
2024-03-24T03:32:49.508Z,5.25
2024-03-24T03:37:52.614Z,5.22
2024-03-24T03:42:55.664Z,5.20
2024-03-24T03:47:58.659Z,5.18
2024-03-24T03:53:02.896Z,5.14
2024-03-24T03:58:05.883Z,5.11
2024-03-24T04:03:08.871Z,5.11
2024-03-24T04:08:12.745Z,5.11
2024-03-24T04:13:15.794Z,5.08
2024-03-24T04:18:18.839Z,5.06
2024-03-24T04:23:21.867Z,5.03
2024-03-24T04:28:24.906Z,4.98
2024-03-24T04:33:27.945Z,4.97
2024-03-24T04:38:31.392Z,4.98
2024-03-24T04:43:34.821Z,4.97
2024-03-24T04:48:38.128Z,4.98
2024-03-24T04:53:41.536Z,5.00
2024-03-24T04:58:44.613Z,4.99
2024-03-24T05:03:47.715Z,4.98
2024-03-24T05:08:51.881Z,5.04
2024-03-24T05:13:54.860Z,5.11
2024-03-24T05:18:57.883Z,5.16
2024-03-24T05:24:00.984Z,5.24
2024-03-24T05:29:05.948Z,5.32
2024-03-24T05:34:10.561Z,5.41
2024-03-24T05:39:13.686Z,5.44
2024-03-24T05:44:17.605Z,5.53
2024-03-24T05:49:20.722Z,5.61
2024-03-24T05:54:23.669Z,5.66
2024-03-24T05:59:26.763Z,5.80
2024-03-24T06:04:31.917Z,5.89
2024-03-24T06:09:39.737Z,5.89
2024-03-24T06:14:42.671Z,5.88
2024-03-24T06:19:45.606Z,5.88
2024-03-24T06:24:48.723Z,5.84
2024-03-24T06:29:51.731Z,5.89
2024-03-24T06:34:54.719Z,5.86
2024-03-24T06:39:57.681Z,5.86
2024-03-24T06:45:08.793Z,5.88
2024-03-24T06:50:11.860Z,5.79
2024-03-24T06:55:15.146Z,5.78
2024-03-24T07:00:21.585Z,5.75
2024-03-24T07:05:24.764Z,5.76
2024-03-24T07:10:27.685Z,5.78
2024-03-24T07:15:31.097Z,5.81
2024-03-24T07:20:34.751Z,5.84
2024-03-24T07:25:37.812Z,5.85
2024-03-24T07:30:40.855Z,5.87
2024-03-24T07:35:44.407Z,5.88
2024-03-24T07:40:47.618Z,5.93
2024-03-24T07:45:50.718Z,5.92
2024-03-24T07:50:53.769Z,5.92
2024-03-24T07:55:58.982Z,5.96
2024-03-24T08:01:02.148Z,6.02
2024-03-24T08:06:05.589Z,6.01
2024-03-24T08:11:08.502Z,5.97
2024-03-24T08:16:11.472Z,5.97
2024-03-24T08:21:17.041Z,5.96
2024-03-24T08:26:19.937Z,6.01
2024-03-24T08:31:25.583Z,6.05
2024-03-24T08:36:28.677Z,6.09
2024-03-24T08:41:31.646Z,6.21
2024-03-24T08:46:34.645Z,6.29
2024-03-24T08:51:37.984Z,6.38
2024-03-24T08:56:40.986Z,6.48
2024-03-24T09:01:45.512Z,6.57
2024-03-24T09:06:48.549Z,6.72
2024-03-24T09:11:52.789Z,6.78
2024-03-24T09:16:55.799Z,6.84
2024-03-24T09:21:58.891Z,6.96
2024-03-24T09:27:03.945Z,7.05
2024-03-24T09:32:06.934Z,7.12
2024-03-24T09:37:10.147Z,7.19
2024-03-24T09:42:16.589Z,7.21
2024-03-24T09:47:19.767Z,7.23
2024-03-24T09:52:24.164Z,7.28
2024-03-24T09:57:34.491Z,7.33
2024-03-24T10:02:37.488Z,7.46
2024-03-24T10:07:40.917Z,7.60
2024-03-24T10:12:54.987Z,7.78
2024-03-24T10:18:23.308Z,7.91
2024-03-24T10:23:30.783Z,8.13
2024-03-24T10:28:34.263Z,8.36
2024-03-24T10:33:40.561Z,8.66
2024-03-24T10:38:44.640Z,8.97
2024-03-24T10:43:48.884Z,9.33
2024-03-24T10:48:52.995Z,9.45
2024-03-24T10:54:01.460Z,9.48
2024-03-24T10:59:05.455Z,9.29
2024-03-24T11:04:09.564Z,9.03
2024-03-24T11:09:13.587Z,8.84
2024-03-24T11:14:16.792Z,8.85
2024-03-24T11:19:27.836Z,8.92
2024-03-24T11:24:35.885Z,9.00
2024-03-24T11:29:51.960Z,9.16
2024-03-24T11:35:00.692Z,9.33
2024-03-24T11:40:04.726Z,9.46
2024-03-24T11:45:28.146Z,9.53
2024-03-24T11:50:31.375Z,9.58
2024-03-24T11:55:35.160Z,9.69
2024-03-24T12:00:38.728Z,9.77
2024-03-24T12:05:41.631Z,9.80
2024-03-24T12:10:48.417Z,9.82
2024-03-24T12:15:51.530Z,9.81
2024-03-24T12:20:54.878Z,9.77
2024-03-24T12:25:57.815Z,9.73
2024-03-24T12:31:01.433Z,9.76
2024-03-24T12:36:05.750Z,9.85
2024-03-24T12:41:08.963Z,9.90
2024-03-24T12:46:11.954Z,9.91
2024-03-24T12:51:15.696Z,10.03
2024-03-24T12:56:21.240Z,10.12
2024-03-24T13:01:25.921Z,10.15
2024-03-24T13:06:32.024Z,10.23
2024-03-24T13:11:35.323Z,10.24
2024-03-24T13:16:44.080Z,10.15
2024-03-24T13:21:54.138Z,10.01
2024-03-24T13:27:00.584Z,9.93
2024-03-24T13:32:03.825Z,10.03
2024-03-24T13:37:17.751Z,10.13
2024-03-24T13:42:24.417Z,10.03
2024-03-24T13:47:38.457Z,9.94
2024-03-24T13:52:42.968Z,10.08
2024-03-24T13:57:46.023Z,10.03
2024-03-24T14:02:49.198Z,9.83
2024-03-24T14:07:52.296Z,9.69
2024-03-24T14:13:17.491Z,9.61
2024-03-24T14:18:33.088Z,9.62
2024-03-24T14:24:05.941Z,9.65
2024-03-24T14:29:08.867Z,9.69
2024-03-24T14:34:11.938Z,9.77
2024-03-24T14:39:35.058Z,9.90
2024-03-24T14:45:13.840Z,9.93
2024-03-24T14:50:17.091Z,9.99
2024-03-24T14:55:20.369Z,10.02
2024-03-24T15:00:24.651Z,10.00
2024-03-24T15:05:28.629Z,9.97
2024-03-24T15:10:31.787Z,9.95
2024-03-24T15:15:37.437Z,9.89
2024-03-24T15:20:40.465Z,9.76
2024-03-24T15:25:43.440Z,9.60
2024-03-24T15:30:47.796Z,9.49
2024-03-24T15:35:50.892Z,9.43
2024-03-24T15:40:53.852Z,9.41
2024-03-24T15:45:57.031Z,9.37
2024-03-24T15:51:00.487Z,9.23
2024-03-24T15:56:29.338Z,9.08
2024-03-24T16:01:43.889Z,8.99
2024-03-24T16:06:47.321Z,8.81
2024-03-24T16:11:56.408Z,8.36
2024-03-24T16:16:59.639Z,8.12
2024-03-24T16:22:25.645Z,7.86
2024-03-24T16:27:28.870Z,7.68
2024-03-24T16:32:31.967Z,7.56
2024-03-24T16:37:35.186Z,7.50
2024-03-24T16:42:38.762Z,7.49
2024-03-24T16:47:41.774Z,7.46
2024-03-24T16:52:45.069Z,7.48
2024-03-24T16:57:48.210Z,7.47
2024-03-24T17:02:51.838Z,7.49
2024-03-24T17:07:57.874Z,7.30
2024-03-24T17:13:00.996Z,7.10
2024-03-24T17:18:04.435Z,6.92
2024-03-24T17:23:07.687Z,6.64
2024-03-24T17:28:10.825Z,6.43
2024-03-24T17:33:14.903Z,6.46
2024-03-24T17:38:20.183Z,6.31
2024-03-24T17:43:23.553Z,6.13
2024-03-24T17:48:26.738Z,6.13
2024-03-24T17:53:35.657Z,6.08
2024-03-24T17:58:41.746Z,6.04
2024-03-24T18:03:48.478Z,6.05
2024-03-24T18:09:09.834Z,6.08
2024-03-24T18:14:13.118Z,5.91
2024-03-24T18:19:16.547Z,5.78
2024-03-24T18:24:19.620Z,5.74
2024-03-24T18:29:23.007Z,5.73
2024-03-24T18:34:26.252Z,5.62
2024-03-24T18:39:29.417Z,5.68
2024-03-24T18:44:32.517Z,5.77
2024-03-24T18:49:35.924Z,5.78
2024-03-24T18:54:39.322Z,5.73
2024-03-24T18:59:44.664Z,5.64
2024-03-24T19:04:48.056Z,5.47
2024-03-24T19:10:34.531Z,5.40
2024-03-24T19:15:46.447Z,5.38
2024-03-24T19:20:49.715Z,5.31
2024-03-24T19:25:56.881Z,5.28
2024-03-24T19:31:05.471Z,5.24
2024-03-24T19:36:11.704Z,5.21
2024-03-24T19:41:16.013Z,5.22
2024-03-24T19:46:19.681Z,5.22
2024-03-24T19:51:22.815Z,5.22
2024-03-24T19:56:27.613Z,5.22
2024-03-24T20:01:52.330Z,5.34
2024-03-24T20:06:55.501Z,5.47
2024-03-24T20:11:59.618Z,5.53
2024-03-24T20:17:02.698Z,5.58
2024-03-24T20:22:05.856Z,5.67
2024-03-24T20:27:08.982Z,5.74
2024-03-24T20:32:20.832Z,5.78
2024-03-24T20:37:23.834Z,5.81
2024-03-24T20:42:26.980Z,5.83
2024-03-24T20:47:30.103Z,5.84
2024-03-24T20:52:33.114Z,5.86
2024-03-24T20:57:36.346Z,5.91
2024-03-24T21:02:39.708Z,5.97
2024-03-24T21:07:42.733Z,6.00
2024-03-24T21:12:45.871Z,6.04
2024-03-24T21:18:29.600Z,6.09
2024-03-24T21:23:32.617Z,6.12
2024-03-24T21:28:35.723Z,6.08
2024-03-24T21:33:38.929Z,6.08
2024-03-24T21:39:00.484Z,6.05
2024-03-24T21:44:03.768Z,6.00
2024-03-24T21:49:06.833Z,5.93
2024-03-24T21:54:09.969Z,5.93
2024-03-24T21:59:13.320Z,5.84
2024-03-24T22:04:17.730Z,5.78
2024-03-24T22:09:21.401Z,5.73
2024-03-24T22:14:24.501Z,5.70
2024-03-24T22:19:27.593Z,5.68
2024-03-24T22:24:31.365Z,5.67
2024-03-24T22:29:34.519Z,5.65
2024-03-24T22:34:37.665Z,5.66
2024-03-24T22:39:40.921Z,5.71
2024-03-24T22:44:44.009Z,5.73
2024-03-24T22:49:47.027Z,5.81
2024-03-24T22:54:50.071Z,5.90
2024-03-24T22:59:53.105Z,5.98
2024-03-24T23:04:56.049Z,6.03
2024-03-24T23:09:59.447Z,6.08
2024-03-24T23:15:02.635Z,6.15
2024-03-24T23:20:07.192Z,6.19
2024-03-24T23:25:30.439Z,6.26
2024-03-24T23:30:33.643Z,6.26
2024-03-24T23:35:36.846Z,6.23
2024-03-24T23:40:39.874Z,6.22
2024-03-24T23:45:42.934Z,6.20
2024-03-24T23:50:46.108Z,6.14
2024-03-24T23:55:49.279Z,6.12
